sensor_id;sensor_type;location;lat;lon;timestamp;pressure;altitude;pressure_sealevel;temperature;humidity
11912;BME280;6016;41.928;25.556;2023-03-14T00:01:19;99516.41;;;7.83;47.29
11912;BME280;6016;41.928;25.556;2023-03-14T00:03:47;99497.16;;;7.83;45.01
11912;BME280;6016;41.928;25.556;2023-03-14T00:06:14;99505.97;;;7.95;43.86
11912;BME280;6016;41.928;25.556;2023-03-14T00:08:43;99498.34;;;7.79;45.29
11912;BME280;6016;41.928;25.556;2023-03-14T00:11:12;99490.47;;;7.79;44.98
11912;BME280;6016;41.928;25.556;2023-03-14T00:13:39;99485.81;;;7.34;45.85
11912;BME280;6016;41.928;25.556;2023-03-14T00:16:09;99487.31;;;7.12;45.32
11912;BME280;6016;41.928;25.556;2023-03-14T00:18:36;99498.75;;;7.24;45.45
11912;BME280;6016;41.928;25.556;2023-03-14T00:21:04;99465.69;;;7.21;45.58
11912;BME280;6016;41.928;25.556;2023-03-14T00:23:33;99440.22;;;7.10;45.49
11912;BME280;6016;41.928;25.556;2023-03-14T00:26:04;99495.81;;;7.53;45.53
11912;BME280;6016;41.928;25.556;2023-03-14T00:28:31;99499.94;;;7.44;46.97
11912;BME280;6016;41.928;25.556;2023-03-14T00:30:58;99500.34;;;7.51;46.76
11912;BME280;6016;41.928;25.556;2023-03-14T00:33:25;99502.31;;;7.60;46.45
11912;BME280;6016;41.928;25.556;2023-03-14T00:35:53;99446.81;;;7.16;44.96
11912;BME280;6016;41.928;25.556;2023-03-14T00:38:20;99500.44;;;7.49;46.23
11912;BME280;6016;41.928;25.556;2023-03-14T00:40:47;99489.69;;;7.41;46.61
11912;BME280;6016;41.928;25.556;2023-03-14T00:43:19;99462.66;;;7.14;45.88
11912;BME280;6016;41.928;25.556;2023-03-14T00:45:47;99462.41;;;6.80;48.57
11912;BME280;6016;41.928;25.556;2023-03-14T00:48:14;99353.00;;;6.32;51.99
11912;BME280;6016;41.928;25.556;2023-03-14T00:50:40;99471.97;;;7.18;47.03
11912;BME280;6016;41.928;25.556;2023-03-14T00:53:07;99470.63;;;7.13;46.70
11912;BME280;6016;41.928;25.556;2023-03-14T00:55:36;99423.00;;;6.56;46.07
11912;BME280;6016;41.928;25.556;2023-03-14T00:58:03;98742.00;;;2.71;47.20
11912;BME280;6016;41.928;25.556;2023-03-14T01:00:31;99408.38;;;6.90;46.09
11912;BME280;6016;41.928;25.556;2023-03-14T01:02:58;99368.38;;;6.50;46.18
11912;BME280;6016;41.928;25.556;2023-03-14T01:05:25;99440.03;;;7.00;48.21
11912;BME280;6016;41.928;25.556;2023-03-14T01:07:52;99457.25;;;7.29;45.89
11912;BME280;6016;41.928;25.556;2023-03-14T01:10:19;99445.94;;;7.28;45.77
11912;BME280;6016;41.928;25.556;2023-03-14T01:12:46;99452.63;;;7.08;48.04
11912;BME280;6016;41.928;25.556;2023-03-14T01:15:12;99376.31;;;6.74;49.32
11912;BME280;6016;41.928;25.556;2023-03-14T01:17:41;99453.34;;;7.10;48.89
11912;BME280;6016;41.928;25.556;2023-03-14T01:20:10;99448.28;;;7.20;49.81
11912;BME280;6016;41.928;25.556;2023-03-14T01:22:37;99423.47;;;6.87;46.77
11912;BME280;6016;41.928;25.556;2023-03-14T01:25:06;99451.91;;;6.80;46.39
11912;BME280;6016;41.928;25.556;2023-03-14T01:27:33;99447.44;;;6.43;50.42
11912;BME280;6016;41.928;25.556;2023-03-14T01:30:00;99410.84;;;6.55;48.68
11912;BME280;6016;41.928;25.556;2023-03-14T01:32:27;99436.31;;;6.79;50.80
11912;BME280;6016;41.928;25.556;2023-03-14T01:34:56;99372.34;;;6.55;47.57
11912;BME280;6016;41.928;25.556;2023-03-14T01:37:23;99160.16;;;5.42;50.63
11912;BME280;6016;41.928;25.556;2023-03-14T01:39:49;99393.81;;;6.86;55.29
11912;BME280;6016;41.928;25.556;2023-03-14T01:42:16;99430.97;;;6.15;50.81
11912;BME280;6016;41.928;25.556;2023-03-14T01:44:51;99300.38;;;5.57;50.50
11912;BME280;6016;41.928;25.556;2023-03-14T01:47:19;99428.66;;;6.37;61.26
11912;BME280;6016;41.928;25.556;2023-03-14T01:49:46;99401.94;;;6.57;55.50
11912;BME280;6016;41.928;25.556;2023-03-14T01:52:19;99424.31;;;6.87;47.88
11912;BME280;6016;41.928;25.556;2023-03-14T01:54:51;99362.09;;;6.52;47.34
11912;BME280;6016;41.928;25.556;2023-03-14T01:57:21;99405.16;;;6.74;58.23
11912;BME280;6016;41.928;25.556;2023-03-14T01:59:52;99345.38;;;6.29;56.70
11912;BME280;6016;41.928;25.556;2023-03-14T02:02:21;99417.53;;;6.72;49.93
11912;BME280;6016;41.928;25.556;2023-03-14T02:04:49;99391.84;;;5.99;48.21
11912;BME280;6016;41.928;25.556;2023-03-14T02:07:20;99413.88;;;6.48;48.11
11912;BME280;6016;41.928;25.556;2023-03-14T02:09:48;99410.00;;;6.67;49.97
11912;BME280;6016;41.928;25.556;2023-03-14T02:12:16;99420.47;;;6.28;50.75
11912;BME280;6016;41.928;25.556;2023-03-14T02:14:44;99398.69;;;6.41;56.80
11912;BME280;6016;41.928;25.556;2023-03-14T02:17:14;99191.97;;;5.23;50.79
11912;BME280;6016;41.928;25.556;2023-03-14T02:19:50;99424.66;;;6.83;47.67
11912;BME280;6016;41.928;25.556;2023-03-14T02:22:22;99401.81;;;6.59;47.06
11912;BME280;6016;41.928;25.556;2023-03-14T02:24:56;99429.81;;;6.32;47.92
11912;BME280;6016;41.928;25.556;2023-03-14T02:27:26;99429.00;;;6.45;50.33
11912;BME280;6016;41.928;25.556;2023-03-14T02:29:57;99429.69;;;6.60;53.05
11912;BME280;6016;41.928;25.556;2023-03-14T02:32:28;99420.34;;;6.69;48.03
11912;BME280;6016;41.928;25.556;2023-03-14T02:34:57;99429.38;;;6.78;46.46
11912;BME280;6016;41.928;25.556;2023-03-14T02:37:28;99361.09;;;6.29;47.08
11912;BME280;6016;41.928;25.556;2023-03-14T02:39:59;99395.00;;;6.56;46.76
11912;BME280;6016;41.928;25.556;2023-03-14T02:42:27;99434.00;;;6.61;46.83
11912;BME280;6016;41.928;25.556;2023-03-14T02:44:57;99370.59;;;6.17;51.08
11912;BME280;6016;41.928;25.556;2023-03-14T02:47:28;99399.13;;;6.35;48.36
11912;BME280;6016;41.928;25.556;2023-03-14T02:50:01;99350.97;;;5.97;47.73
11912;BME280;6016;41.928;25.556;2023-03-14T02:52:28;99398.69;;;6.41;47.96
11912;BME280;6016;41.928;25.556;2023-03-14T02:54:55;99361.94;;;6.16;46.91
11912;BME280;6016;41.928;25.556;2023-03-14T02:57:22;99415.38;;;6.53;46.96
11912;BME280;6016;41.928;25.556;2023-03-14T02:59:50;99379.84;;;6.36;47.60
11912;BME280;6016;41.928;25.556;2023-03-14T03:02:18;99417.13;;;6.52;47.37
11912;BME280;6016;41.928;25.556;2023-03-14T03:04:44;99412.50;;;6.43;48.23
11912;BME280;6016;41.928;25.556;2023-03-14T03:07:11;99284.59;;;5.85;48.87
11912;BME280;6016;41.928;25.556;2023-03-14T03:09:38;99351.34;;;6.31;47.24
11912;BME280;6016;41.928;25.556;2023-03-14T03:12:05;99407.78;;;6.74;48.53
11912;BME280;6016;41.928;25.556;2023-03-14T03:14:32;99346.41;;;6.39;47.45
11912;BME280;6016;41.928;25.556;2023-03-14T03:17:00;99381.28;;;6.53;46.08
11912;BME280;6016;41.928;25.556;2023-03-14T03:19:27;99412.63;;;6.54;46.73
11912;BME280;6016;41.928;25.556;2023-03-14T03:21:54;99406.09;;;6.73;46.10
11912;BME280;6016;41.928;25.556;2023-03-14T03:24:21;99398.47;;;6.57;46.78
11912;BME280;6016;41.928;25.556;2023-03-14T03:26:47;99335.59;;;6.18;48.87
11912;BME280;6016;41.928;25.556;2023-03-14T03:29:14;99399.81;;;6.63;49.67
11912;BME280;6016;41.928;25.556;2023-03-14T03:31:41;99401.72;;;6.60;51.29
11912;BME280;6016;41.928;25.556;2023-03-14T03:34:12;99396.56;;;6.59;47.32
11912;BME280;6016;41.928;25.556;2023-03-14T03:36:39;99401.09;;;6.31;47.70
11912;BME280;6016;41.928;25.556;2023-03-14T03:39:06;99344.25;;;5.80;49.10
11912;BME280;6016;41.928;25.556;2023-03-14T03:41:33;99410.84;;;6.29;50.95
11912;BME280;6016;41.928;25.556;2023-03-14T03:44:00;99403.72;;;5.65;48.63
11912;BME280;6016;41.928;25.556;2023-03-14T03:46:27;99405.13;;;5.96;55.05
11912;BME280;6016;41.928;25.556;2023-03-14T03:48:54;99411.69;;;6.16;50.65
11912;BME280;6016;41.928;25.556;2023-03-14T03:51:23;99410.09;;;6.14;47.72
11912;BME280;6016;41.928;25.556;2023-03-14T03:53:50;99305.69;;;5.43;48.06
11912;BME280;6016;41.928;25.556;2023-03-14T03:56:17;99415.25;;;6.15;47.42
11912;BME280;6016;41.928;25.556;2023-03-14T03:58:44;99348.25;;;5.85;47.13
11912;BME280;6016;41.928;25.556;2023-03-14T04:01:11;99313.25;;;5.60;48.89
11912;BME280;6016;41.928;25.556;2023-03-14T04:03:37;99350.53;;;5.64;50.05
11912;BME280;6016;41.928;25.556;2023-03-14T04:06:06;99400.97;;;6.07;52.44
11912;BME280;6016;41.928;25.556;2023-03-14T04:08:35;99223.28;;;5.10;54.05
11912;BME280;6016;41.928;25.556;2023-03-14T04:11:03;99401.09;;;6.31;50.18
11912;BME280;6016;41.928;25.556;2023-03-14T04:13:30;99375.03;;;6.16;48.27
11912;BME280;6016;41.928;25.556;2023-03-14T04:15:57;99154.00;;;4.63;46.91
11912;BME280;6016;41.928;25.556;2023-03-14T04:18:24;99408.53;;;6.11;47.36
11912;BME280;6016;41.928;25.556;2023-03-14T04:20:51;99274.91;;;5.33;46.91
11912;BME280;6016;41.928;25.556;2023-03-14T04:23:18;99343.81;;;5.60;46.67
11912;BME280;6016;41.928;25.556;2023-03-14T04:25:47;99367.28;;;5.74;47.28
11912;BME280;6016;41.928;25.556;2023-03-14T04:28:14;99156.56;;;4.23;48.79
11912;BME280;6016;41.928;25.556;2023-03-14T04:30:40;99423.25;;;5.99;48.64
11912;BME280;6016;41.928;25.556;2023-03-14T04:33:07;99343.22;;;5.29;47.67
11912;BME280;6016;41.928;25.556;2023-03-14T04:35:34;99424.44;;;6.08;47.12
11912;BME280;6016;41.928;25.556;2023-03-14T04:38:01;99309.47;;;5.52;48.31
11912;BME280;6016;41.928;25.556;2023-03-14T04:40:28;99424.25;;;6.24;49.52
11912;BME280;6016;41.928;25.556;2023-03-14T04:42:56;99404.53;;;6.31;54.81
11912;BME280;6016;41.928;25.556;2023-03-14T04:45:23;99408.22;;;6.29;51.45
11912;BME280;6016;41.928;25.556;2023-03-14T04:47:52;99358.78;;;5.58;47.56
11912;BME280;6016;41.928;25.556;2023-03-14T04:50:19;99399.03;;;5.83;49.42
11912;BME280;6016;41.928;25.556;2023-03-14T04:52:46;99301.56;;;5.13;51.79
11912;BME280;6016;41.928;25.556;2023-03-14T04:55:13;99408.22;;;6.03;59.76
11912;BME280;6016;41.928;25.556;2023-03-14T04:57:40;99324.56;;;5.61;52.78
11912;BME280;6016;41.928;25.556;2023-03-14T05:00:10;99394.91;;;6.19;49.06
11912;BME280;6016;41.928;25.556;2023-03-14T05:02:37;99304.03;;;5.55;47.24
11912;BME280;6016;41.928;25.556;2023-03-14T05:05:04;99405.59;;;6.03;48.27
11912;BME280;6016;41.928;25.556;2023-03-14T05:07:31;99303.91;;;5.03;48.48
11912;BME280;6016;41.928;25.556;2023-03-14T05:09:58;99349.31;;;5.42;47.90
11912;BME280;6016;41.928;25.556;2023-03-14T05:12:24;99285.50;;;5.04;47.54
11912;BME280;6016;41.928;25.556;2023-03-14T05:14:51;99288.47;;;5.13;48.23
11912;BME280;6016;41.928;25.556;2023-03-14T05:17:20;99398.19;;;5.82;48.42
11912;BME280;6016;41.928;25.556;2023-03-14T05:19:47;99405.97;;;5.84;48.23
11912;BME280;6016;41.928;25.556;2023-03-14T05:22:14;99401.84;;;5.80;47.84
11912;BME280;6016;41.928;25.556;2023-03-14T05:24:40;99355.94;;;5.48;51.20
11912;BME280;6016;41.928;25.556;2023-03-14T05:27:07;99398.63;;;5.89;49.28
11912;BME280;6016;41.928;25.556;2023-03-14T05:29:34;99402.03;;;6.04;48.17
11912;BME280;6016;41.928;25.556;2023-03-14T05:32:01;99402.47;;;6.11;48.39
11912;BME280;6016;41.928;25.556;2023-03-14T05:34:29;99399.94;;;6.09;48.06
11912;BME280;6016;41.928;25.556;2023-03-14T05:36:56;99264.44;;;5.33;49.45
11912;BME280;6016;41.928;25.556;2023-03-14T05:39:23;99404.13;;;6.25;48.43
11912;BME280;6016;41.928;25.556;2023-03-14T05:41:50;99250.94;;;5.27;47.84
11912;BME280;6016;41.928;25.556;2023-03-14T05:44:19;99309.47;;;5.52;53.97
11912;BME280;6016;41.928;25.556;2023-03-14T05:46:46;99395.44;;;6.24;52.42
11912;BME280;6016;41.928;25.556;2023-03-14T05:49:12;99400.88;;;6.34;51.80
11912;BME280;6016;41.928;25.556;2023-03-14T05:51:41;99399.84;;;6.37;52.42
11912;BME280;6016;41.928;25.556;2023-03-14T05:54:08;99390.09;;;6.52;55.54
11912;BME280;6016;41.928;25.556;2023-03-14T05:56:35;99372.34;;;6.68;50.00
11912;BME280;6016;41.928;25.556;2023-03-14T05:59:02;99384.81;;;6.78;49.38
11912;BME280;6016;41.928;25.556;2023-03-14T06:01:28;99380.97;;;6.95;49.08
11912;BME280;6016;41.928;25.556;2023-03-14T06:03:55;99367.84;;;6.70;48.81
11912;BME280;6016;41.928;25.556;2023-03-14T06:06:22;99291.88;;;6.57;48.90
11912;BME280;6016;41.928;25.556;2023-03-14T06:08:50;99374.34;;;7.26;48.55
11912;BME280;6016;41.928;25.556;2023-03-14T06:11:17;99290.88;;;6.71;48.17
11912;BME280;6016;41.928;25.556;2023-03-14T06:13:44;99380.63;;;7.37;47.19
11912;BME280;6016;41.928;25.556;2023-03-14T06:16:11;99380.91;;;7.21;47.31
11912;BME280;6016;41.928;25.556;2023-03-14T06:18:38;99376.97;;;7.26;48.54
11912;BME280;6016;41.928;25.556;2023-03-14T06:21:07;99370.44;;;7.32;48.46
11912;BME280;6016;41.928;25.556;2023-03-14T06:23:34;99373.06;;;7.32;49.21
11912;BME280;6016;41.928;25.556;2023-03-14T06:26:02;99383.84;;;7.40;49.08
11912;BME280;6016;41.928;25.556;2023-03-14T06:28:29;99331.13;;;7.08;49.44
11912;BME280;6016;41.928;25.556;2023-03-14T06:30:56;99375.84;;;7.30;49.85
11912;BME280;6016;41.928;25.556;2023-03-14T06:33:23;99274.81;;;6.76;49.03
11912;BME280;6016;41.928;25.556;2023-03-14T06:35:50;99379.50;;;7.52;49.13
11912;BME280;6016;41.928;25.556;2023-03-14T06:38:17;99274.66;;;7.15;48.58
11912;BME280;6016;41.928;25.556;2023-03-14T06:40:44;99383.50;;;8.39;46.86
11912;BME280;6016;41.928;25.556;2023-03-14T06:43:12;99373.50;;;9.34;44.50
11912;BME280;6016;41.928;25.556;2023-03-14T06:45:39;99381.44;;;10.62;42.56
11912;BME280;6016;41.928;25.556;2023-03-14T06:48:06;99348.09;;;11.51;41.17
11912;BME280;6016;41.928;25.556;2023-03-14T06:50:34;99324.34;;;13.57;37.31
11912;BME280;6016;41.928;25.556;2023-03-14T06:53:00;99368.59;;;16.94;31.59
11912;BME280;6016;41.928;25.556;2023-03-14T06:55:27;99318.09;;;18.76;29.05
11912;BME280;6016;41.928;25.556;2023-03-14T06:57:54;99361.16;;;20.83;26.78
11912;BME280;6016;41.928;25.556;2023-03-14T07:00:23;99347.44;;;22.27;24.52
11912;BME280;6016;41.928;25.556;2023-03-14T07:02:50;99323.53;;;23.10;22.38
11912;BME280;6016;41.928;25.556;2023-03-14T07:05:17;99356.03;;;23.48;22.82
11912;BME280;6016;41.928;25.556;2023-03-14T07:07:44;99319.41;;;23.91;22.11
11912;BME280;6016;41.928;25.556;2023-03-14T07:10:10;99359.63;;;24.73;21.79
11912;BME280;6016;41.928;25.556;2023-03-14T07:12:37;99359.00;;;25.21;21.46
11912;BME280;6016;41.928;25.556;2023-03-14T07:15:05;99349.75;;;25.71;20.97
11912;BME280;6016;41.928;25.556;2023-03-14T07:17:33;99334.22;;;26.38;20.40
11912;BME280;6016;41.928;25.556;2023-03-14T07:20:00;99349.00;;;26.59;20.48
11912;BME280;6016;41.928;25.556;2023-03-14T07:22:29;99350.00;;;25.69;20.93
11912;BME280;6016;41.928;25.556;2023-03-14T07:24:56;99345.41;;;25.94;20.76
11912;BME280;6016;41.928;25.556;2023-03-14T07:27:23;99326.16;;;25.78;20.48
11912;BME280;6016;41.928;25.556;2023-03-14T07:29:50;99341.06;;;25.93;19.86
11912;BME280;6016;41.928;25.556;2023-03-14T07:32:16;99341.78;;;26.00;19.69
11912;BME280;6016;41.928;25.556;2023-03-14T07:34:45;99342.59;;;25.89;20.25
11912;BME280;6016;41.928;25.556;2023-03-14T07:37:11;99348.09;;;24.29;21.39
11912;BME280;6016;41.928;25.556;2023-03-14T07:39:38;99346.16;;;23.67;21.92
11912;BME280;6016;41.928;25.556;2023-03-14T07:42:05;99341.69;;;23.79;22.25
11912;BME280;6016;41.928;25.556;2023-03-14T07:44:32;99340.63;;;23.29;22.19
11912;BME280;6016;41.928;25.556;2023-03-14T07:46:59;99332.94;;;22.42;23.42
11912;BME280;6016;41.928;25.556;2023-03-14T07:49:26;99332.22;;;21.87;23.56
11912;BME280;6016;41.928;25.556;2023-03-14T07:51:54;99333.25;;;21.86;23.55
11912;BME280;6016;41.928;25.556;2023-03-14T07:54:21;99291.94;;;21.54;25.40
11912;BME280;6016;41.928;25.556;2023-03-14T07:56:49;99336.50;;;21.21;24.98
11912;BME280;6016;41.928;25.556;2023-03-14T07:59:15;99275.28;;;19.85;25.40
11912;BME280;6016;41.928;25.556;2023-03-14T08:01:42;99320.91;;;20.34;26.02
11912;BME280;6016;41.928;25.556;2023-03-14T08:04:09;99327.97;;;20.48;25.80
11912;BME280;6016;41.928;25.556;2023-03-14T08:06:36;99318.38;;;20.67;25.41
11912;BME280;6016;41.928;25.556;2023-03-14T08:09:05;99325.00;;;20.78;25.08
11912;BME280;6016;41.928;25.556;2023-03-14T08:11:31;99321.06;;;20.67;25.45
11912;BME280;6016;41.928;25.556;2023-03-14T08:13:58;99313.97;;;21.02;25.21
11912;BME280;6016;41.928;25.556;2023-03-14T08:16:25;99302.41;;;21.01;25.56
11912;BME280;6016;41.928;25.556;2023-03-14T08:18:52;99304.31;;;21.34;24.94
11912;BME280;6016;41.928;25.556;2023-03-14T08:21:19;99295.03;;;21.64;24.49
11912;BME280;6016;41.928;25.556;2023-03-14T08:23:45;99292.56;;;21.42;25.08
11912;BME280;6016;41.928;25.556;2023-03-14T08:26:14;99291.31;;;21.45;24.72
11912;BME280;6016;41.928;25.556;2023-03-14T08:28:41;99294.19;;;21.10;24.90
11912;BME280;6016;41.928;25.556;2023-03-14T08:31:08;99263.13;;;20.18;25.30
11912;BME280;6016;41.928;25.556;2023-03-14T08:33:34;99258.41;;;19.85;25.91
11912;BME280;6016;41.928;25.556;2023-03-14T08:36:01;99288.00;;;20.05;26.18
11912;BME280;6016;41.928;25.556;2023-03-14T08:38:28;99208.66;;;19.11;27.71
11912;BME280;6016;41.928;25.556;2023-03-14T08:40:56;99278.78;;;19.86;32.15
11912;BME280;6016;41.928;25.556;2023-03-14T08:43:25;99266.63;;;19.83;27.98
11912;BME280;6016;41.928;25.556;2023-03-14T08:45:52;99270.06;;;20.05;26.25
11912;BME280;6016;41.928;25.556;2023-03-14T08:48:19;99280.22;;;19.88;26.82
11912;BME280;6016;41.928;25.556;2023-03-14T08:50:46;99268.56;;;19.96;27.59
11912;BME280;6016;41.928;25.556;2023-03-14T08:53:13;99234.63;;;19.75;26.67
11912;BME280;6016;41.928;25.556;2023-03-14T08:55:40;99265.41;;;19.86;26.19
11912;BME280;6016;41.928;25.556;2023-03-14T08:58:07;99263.50;;;19.51;26.20
11912;BME280;6016;41.928;25.556;2023-03-14T09:00:35;99260.59;;;19.46;27.07
11912;BME280;6016;41.928;25.556;2023-03-14T09:03:02;99246.22;;;19.53;27.13
11912;BME280;6016;41.928;25.556;2023-03-14T09:05:28;99211.84;;;19.22;24.94
11912;BME280;6016;41.928;25.556;2023-03-14T09:07:58;99227.06;;;19.21;27.80
11912;BME280;6016;41.928;25.556;2023-03-14T09:10:25;99227.88;;;19.22;26.42
11912;BME280;6016;41.928;25.556;2023-03-14T09:12:52;99231.84;;;19.04;26.01
11912;BME280;6016;41.928;25.556;2023-03-14T09:15:19;99246.16;;;19.18;25.59
11912;BME280;6016;41.928;25.556;2023-03-14T09:17:47;99240.06;;;19.24;28.01
11912;BME280;6016;41.928;25.556;2023-03-14T09:20:14;99234.66;;;19.46;25.85
11912;BME280;6016;41.928;25.556;2023-03-14T09:22:40;99229.91;;;19.77;25.42
11912;BME280;6016;41.928;25.556;2023-03-14T09:25:08;99081.53;;;18.80;26.13
11912;BME280;6016;41.928;25.556;2023-03-14T09:27:35;99229.88;;;19.70;25.81
11912;BME280;6016;41.928;25.556;2023-03-14T09:30:02;99228.34;;;19.54;25.91
11912;BME280;6016;41.928;25.556;2023-03-14T09:32:30;99219.88;;;19.86;23.69
11912;BME280;6016;41.928;25.556;2023-03-14T09:34:58;99213.59;;;20.00;24.65
11912;BME280;6016;41.928;25.556;2023-03-14T09:37:25;99191.38;;;20.06;25.77
11912;BME280;6016;41.928;25.556;2023-03-14T09:39:52;99190.22;;;20.22;26.19
11912;BME280;6016;41.928;25.556;2023-03-14T09:42:22;99168.31;;;20.05;23.74
11912;BME280;6016;41.928;25.556;2023-03-14T09:44:53;99142.59;;;19.76;23.52
11912;BME280;6016;41.928;25.556;2023-03-14T09:47:22;99178.63;;;20.15;23.58
11912;BME280;6016;41.928;25.556;2023-03-14T09:49:49;99185.44;;;20.11;23.56
11912;BME280;6016;41.928;25.556;2023-03-14T09:52:22;99184.19;;;20.07;23.22
11912;BME280;6016;41.928;25.556;2023-03-14T09:54:51;99175.53;;;20.05;24.06
11912;BME280;6016;41.928;25.556;2023-03-14T09:57:21;99178.44;;;20.17;23.23
11912;BME280;6016;41.928;25.556;2023-03-14T09:59:49;99129.66;;;19.79;25.73
11912;BME280;6016;41.928;25.556;2023-03-14T10:02:18;99149.66;;;19.90;22.71
11912;BME280;6016;41.928;25.556;2023-03-14T10:04:47;99100.22;;;19.79;22.46
11912;BME280;6016;41.928;25.556;2023-03-14T10:07:15;99155.66;;;20.48;24.22
11912;BME280;6016;41.928;25.556;2023-03-14T10:09:48;99148.28;;;20.70;21.55
11912;BME280;6016;41.928;25.556;2023-03-14T10:12:15;99125.78;;;20.58;21.97
11912;BME280;6016;41.928;25.556;2023-03-14T10:14:47;99043.03;;;19.94;25.38
11912;BME280;6016;41.928;25.556;2023-03-14T10:17:15;99136.06;;;20.54;22.52
11912;BME280;6016;41.928;25.556;2023-03-14T10:19:54;99106.41;;;20.42;24.87
11912;BME280;6016;41.928;25.556;2023-03-14T10:22:23;99129.91;;;20.67;23.55
11912;BME280;6016;41.928;25.556;2023-03-14T10:24:54;99122.50;;;20.76;22.86
11912;BME280;6016;41.928;25.556;2023-03-14T10:27:28;99120.47;;;20.85;24.25
11912;BME280;6016;41.928;25.556;2023-03-14T10:29:57;99098.75;;;20.73;24.09
11912;BME280;6016;41.928;25.556;2023-03-14T10:32:29;99109.91;;;20.76;23.26
11912;BME280;6016;41.928;25.556;2023-03-14T10:35:08;99034.81;;;20.02;22.93
11912;BME280;6016;41.928;25.556;2023-03-14T10:37:35;99056.22;;;19.95;23.97
11912;BME280;6016;41.928;25.556;2023-03-14T10:40:05;99078.53;;;20.16;23.93
11912;BME280;6016;41.928;25.556;2023-03-14T10:42:34;99095.44;;;20.30;24.45
11912;BME280;6016;41.928;25.556;2023-03-14T10:45:21;99007.75;;;19.83;24.95
11912;BME280;6016;41.928;25.556;2023-03-14T10:47:51;99067.19;;;20.21;24.69
11912;BME280;6016;41.928;25.556;2023-03-14T10:50:26;99060.78;;;20.08;26.57
11912;BME280;6016;41.928;25.556;2023-03-14T10:52:54;99059.94;;;20.01;26.88
11912;BME280;6016;41.928;25.556;2023-03-14T10:55:24;99054.28;;;19.76;26.00
11912;BME280;6016;41.928;25.556;2023-03-14T10:57:51;99019.66;;;19.12;25.37
11912;BME280;6016;41.928;25.556;2023-03-14T11:00:21;99033.81;;;18.77;26.03
11912;BME280;6016;41.928;25.556;2023-03-14T11:02:57;98972.69;;;18.39;26.96
11912;BME280;6016;41.928;25.556;2023-03-14T11:05:30;99012.56;;;18.69;27.01
11912;BME280;6016;41.928;25.556;2023-03-14T11:08:02;98919.41;;;18.24;27.42
11912;BME280;6016;41.928;25.556;2023-03-14T11:10:38;98923.38;;;17.84;29.89
11912;BME280;6016;41.928;25.556;2023-03-14T11:13:16;99005.22;;;18.78;29.02
11912;BME280;6016;41.928;25.556;2023-03-14T11:15:53;98692.56;;;17.10;27.82
11912;BME280;6016;41.928;25.556;2023-03-14T11:18:42;98979.47;;;18.98;27.81
11912;BME280;6016;41.928;25.556;2023-03-14T11:21:13;98977.22;;;19.02;27.46
11912;BME280;6016;41.928;25.556;2023-03-14T11:23:50;98924.50;;;18.54;27.75
11912;BME280;6016;41.928;25.556;2023-03-14T11:26:28;98895.03;;;17.83;28.98
11912;BME280;6016;41.928;25.556;2023-03-14T11:28:58;98930.63;;;18.41;30.12
11912;BME280;6016;41.928;25.556;2023-03-14T11:31:27;98942.56;;;18.80;29.16
11912;BME280;6016;41.928;25.556;2023-03-14T11:33:58;98916.78;;;18.66;27.93
11912;BME280;6016;41.928;25.556;2023-03-14T11:36:29;98935.38;;;18.88;27.29
11912;BME280;6016;41.928;25.556;2023-03-14T11:38:58;98919.69;;;19.13;27.80
11912;BME280;6016;41.928;25.556;2023-03-14T11:41:30;98916.91;;;19.35;25.03
11912;BME280;6016;41.928;25.556;2023-03-14T11:44:02;98851.28;;;18.83;24.65
11912;BME280;6016;41.928;25.556;2023-03-14T11:46:33;98845.31;;;18.75;24.41
11912;BME280;6016;41.928;25.556;2023-03-14T11:49:05;98897.75;;;19.31;24.18
11912;BME280;6016;41.928;25.556;2023-03-14T11:51:35;98879.19;;;19.23;24.92
11912;BME280;6016;41.928;25.556;2023-03-14T11:54:11;98887.09;;;19.65;26.87
11912;BME280;6016;41.928;25.556;2023-03-14T11:56:45;98848.19;;;19.62;25.03
11912;BME280;6016;41.928;25.556;2023-03-14T11:59:16;98869.59;;;19.89;25.22
11912;BME280;6016;41.928;25.556;2023-03-14T12:01:57;98868.56;;;19.70;23.69
11912;BME280;6016;41.928;25.556;2023-03-14T12:04:39;98857.66;;;19.65;22.60
11912;BME280;6016;41.928;25.556;2023-03-14T12:07:11;98860.94;;;19.53;24.02
11912;BME280;6016;41.928;25.556;2023-03-14T12:09:39;98834.19;;;19.47;24.56
11912;BME280;6016;41.928;25.556;2023-03-14T12:12:12;98628.97;;;18.19;26.34
11912;BME280;6016;41.928;25.556;2023-03-14T12:14:45;98825.97;;;19.35;22.92
11912;BME280;6016;41.928;25.556;2023-03-14T12:17:22;98839.94;;;19.37;22.61
11912;BME280;6016;41.928;25.556;2023-03-14T12:20:00;98798.19;;;19.29;23.11
11912;BME280;6016;41.928;25.556;2023-03-14T12:22:30;98836.03;;;19.46;22.80
11912;BME280;6016;41.928;25.556;2023-03-14T12:25:04;98828.44;;;19.50;23.43
11912;BME280;6016;41.928;25.556;2023-03-14T12:27:48;98794.69;;;19.42;21.63
11912;BME280;6016;41.928;25.556;2023-03-14T12:30:28;98780.66;;;19.00;21.06
11912;BME280;6016;41.928;25.556;2023-03-14T12:36:01;98780.13;;;18.69;21.87
11912;BME280;6016;41.928;25.556;2023-03-14T12:41:23;98742.28;;;18.10;21.45
11912;BME280;6016;41.928;25.556;2023-03-14T12:43:53;98796.28;;;18.54;20.98
11912;BME280;6016;41.928;25.556;2023-03-14T12:46:22;98793.31;;;18.77;21.62
11912;BME280;6016;41.928;25.556;2023-03-14T12:48:50;98786.13;;;18.84;21.50
11912;BME280;6016;41.928;25.556;2023-03-14T12:51:28;98669.56;;;17.66;24.14
11912;BME280;6016;41.928;25.556;2023-03-14T12:54:26;98771.97;;;18.91;25.40
11912;BME280;6016;41.928;25.556;2023-03-14T12:57:12;98765.38;;;18.87;22.56
11912;BME280;6016;41.928;25.556;2023-03-14T12:59:48;98725.44;;;18.58;22.66
11912;BME280;6016;41.928;25.556;2023-03-14T13:02:24;98651.31;;;18.05;23.45
11912;BME280;6016;41.928;25.556;2023-03-14T13:04:59;98746.81;;;18.65;23.51
11912;BME280;6016;41.928;25.556;2023-03-14T13:07:35;98744.53;;;18.62;22.57
11912;BME280;6016;41.928;25.556;2023-03-14T13:10:23;98748.63;;;18.51;22.58
11912;BME280;6016;41.928;25.556;2023-03-14T13:12:52;98739.16;;;18.48;22.42
11912;BME280;6016;41.928;25.556;2023-03-14T13:15:27;98683.47;;;18.38;24.30
11912;BME280;6016;41.928;25.556;2023-03-14T13:17:59;98560.00;;;17.67;23.33
11912;BME280;6016;41.928;25.556;2023-03-14T13:20:30;98717.47;;;18.78;23.34